SPHO/AYP METAR and TAF weather

Enter ICAO airport designator
Station Type Date Time Source
SPHO METAR 2021/04/14 20:00 UTC NOAA

SPHO 142000Z 04008KT 360V070 9999 FEW055 SCT100 22/09 Q1025 RMK PP000


Station Type Date Time Source
SPHO Decoded METAR 2021/04/14 20:00 UTC NOAA

Ayacucho, Peru (SPHO) 13-08S 074-13W 2749M
Apr 14, 2021 - 04:00 PM EDT / 2021.04.14 2000 UTC
Wind: from the NE (040 degrees) at 9 MPH (8 KT) (direction variable):0
Visibility: greater than 7 mile(s):0
Sky conditions: partly cloudy
Temperature: 71 F (22 C)
Dew Point: 48 F (9 C)
Relative Humidity: 43%
Pressure (altimeter): 30.27 in. Hg (1025 hPa)
ob: SPHO 142000Z 04008KT 360V070 9999 FEW055 SCT100 22/09 Q1025 RMK PP000
cycle: 20

Station Type Date Time Source
SPHO TAF 2021/04/14 18:33 UTC NOAA

SPHO 141700Z 1418/1518 06004KT 9999 FEW020TCU SCT050 BKN100 TX22/1420Z TN11/1511Z
BECMG 1420/1422 SCT050 BKN080

Example: see airport list